This is the latest recevied weather packets stored in our database for station/object E22ZMG-3. If no packets are shown the sender has not sent any weather packets the latest 1 day(s).
| Time | Temp. | Humidity | Pressure | Rain* | Wind** | Luminosity | Snow |
|---|---|---|---|---|---|---|---|
| 1778063482 | 41.67° C | 31% | 971 hPa | - | - | 0 W/m² | - |
| 1778062857 | 41.11° C | 30% | 971 hPa | - | - | 0 W/m² | - |
| 1778059735 | 39.44° C | 33% | 971 hPa | - | - | 0 W/m² | - |
| 1778059110 | 38.33° C | 35% | 971 hPa | - | - | 0 W/m² | - |
| 1778057861 | 37.22° C | 38% | 971 hPa | - | - | 0 W/m² | - |
| 1778056612 | 37.22° C | 40% | 972 hPa | - | - | 0 W/m² | - |
| 1778055362 | 38.89° C | 37% | 972 hPa | - | - | 0 W/m² | - |
| 1778053487 | 40.56° C | 29% | 972 hPa | - | - | 0 W/m² | - |
| 1778052863 | 42.22° C | 28% | 972 hPa | - | - | 0 W/m² | - |
| 1778052238 | 42.22° C | 29% | 972 hPa | - | - | 0 W/m² | - |
| 1778051612 | 42.22° C | 29% | 973 hPa | - | - | 0 W/m² | - |
| 1778049738 | 41.67° C | 30% | 973 hPa | - | - | 0 W/m² | - |
| 1778049108 | 41.67° C | 30% | 974 hPa | - | - | 0 W/m² | - |
| 1778048483 | 41.11° C | 31% | 974 hPa | - | - | 0 W/m² | - |
| 1778047857 | 41.11° C | 31% | 974 hPa | - | - | 0 W/m² | - |
| 1778047232 | 40.56° C | 32% | 974 hPa | - | - | 0 W/m² | - |
| 1778045980 | 40.56° C | 32% | 975 hPa | - | - | 0 W/m² | - |
| 1778044730 | 40° C | 34% | 975 hPa | - | - | 0 W/m² | - |
| 1778044105 | 41.11° C | 32% | 975 hPa | - | - | 0 W/m² | - |
| 1778042854 | 39.44° C | 35% | 976 hPa | - | - | 0 W/m² | - |
| 1778041605 | 38.33° C | 38% | 976 hPa | - | - | 0 W/m² | - |
| 1778040353 | 37.78° C | 39% | 976 hPa | - | - | 0 W/m² | - |
| 1778038480 | 37.22° C | 41% | 977 hPa | - | - | 0 W/m² | - |
| 1778037856 | 36.67° C | 44% | 977 hPa | - | - | 0 W/m² | - |
| 1778036605 | 35.56° C | 44% | 977 hPa | - | - | 0 W/m² | - |
* Rain since midnight (hover to see other rain measurements)
** Current wind speed in m/s (hover to see current wind gust speed)